Аэропорт: Витязево. Анапа

ICAO: URKA

METAR:
2020-06-01 01:00:00
URKA 010100Z AUTO 15003MPS 9999 // NCD 10/08 Q1011 RMK QFE755/1006
METAR:
2020-05-31 13:52:00
TAF URKA 311352Z 3115/0115 20006G13MPS 9999 SCT030CB TEMPO 3118/0106 18003G08MPS 6000 -SHRA SCT016 SCT030CB